Aviation Digital Data Service (ADDS)

Output produced by METARs form (1652 UTC 26 April 2018)
found at http://aviationweather.gov/adds/metars/
 
KLFK 261553Z AUTO 32005G15KT 10SM CLR 17/08 A3003 RMK AO2 SLP168 T01670078